Time;durP1;ratioP1;P1;durP2;ratioP2;P2;SDS_P1;SDS_P2;PMS_P1;PMS_P2;Temp;Humidity;BMP_temperature;BMP_pressure;BME280_temperature;BME280_humidity;BME280_pressure;Samples;Min_cycle;Max_cycle;Signal;HPM_P1;HPM_P2
2023/09/20 00:01:57;;;;;;;;;;;22.30;50.50;;;;;;1568903;74;720;-68
2023/09/20 00:04:02;;;;;;;;;;;22.30;50.60;;;;;;1557612;74;747;-68
2023/09/20 00:06:09;;;;;;;;;;;22.30;50.50;;;;;;1564838;74;1665;-67
2023/09/20 00:08:06;;;;;;;;;;;22.30;50.50;;;;;;1568885;74;1626;-68
2023/09/20 00:10:15;;;;;;;;;;;22.30;50.50;;;;;;1566522;74;762;-68
2023/09/20 00:12:15;;;;;;;;;;;22.30;50.50;;;;;;1566594;74;1710;-68
2023/09/20 00:14:17;;;;;;;;;;;22.30;50.50;;;;;;1560695;74;778;-66
2023/09/20 00:16:19;;;;;;;;;;;22.30;50.50;;;;;;1569390;74;1954;-68
2023/09/20 00:18:23;;;;;;;;;;;22.30;50.50;;;;;;1562374;74;1197;-69
2023/09/20 00:20:25;;;;;;;;;;;22.30;50.50;;;;;;1560871;74;1401;-68
2023/09/20 00:22:27;;;;;;;;;;;22.30;50.50;;;;;;1563095;74;722;-68
2023/09/20 00:24:29;;;;;;;;;;;22.30;50.50;;;;;;1568904;74;789;-67
2023/09/20 00:26:33;;;;;;;;;;;22.30;50.50;;;;;;1566281;74;613;-68
2023/09/20 00:28:35;;;;;;;;;;;22.30;50.50;;;;;;1567010;74;1152;-68
2023/09/20 00:30:37;;;;;;;;;;;22.30;50.50;;;;;;1568821;74;797;-68
2023/09/20 00:32:40;;;;;;;;;;;22.30;50.50;;;;;;1566653;74;799;-69
2023/09/20 00:34:42;;;;;;;;;;;22.30;50.50;;;;;;1567987;74;1919;-69
2023/09/20 00:36:44;;;;;;;;;;;22.30;50.50;;;;;;1567005;74;1533;-68
2023/09/20 00:38:47;;;;;;;;;;;22.30;50.40;;;;;;1564429;74;1132;-68
2023/09/20 00:40:49;;;;;;;;;;;22.30;50.40;;;;;;1563304;74;801;-67
2023/09/20 00:42:53;;;;;;;;;;;22.30;50.40;;;;;;1565731;74;790;-68
2023/09/20 00:44:55;;;;;;;;;;;22.30;50.40;;;;;;1569855;74;1753;-68
2023/09/20 00:46:58;;;;;;;;;;;22.30;50.40;;;;;;1561658;74;693;-69
2023/09/20 00:49:00;;;;;;;;;;;22.30;50.40;;;;;;1560726;74;1110;-68
2023/09/20 00:51:02;;;;;;;;;;;22.30;50.30;;;;;;1564337;74;793;-66
2023/09/20 00:53:11;;;;;;;;;;;22.30;50.30;;;;;;1567754;74;761;-68
2023/09/20 00:55:20;;;;;;;;;;;22.30;50.30;;;;;;1566272;74;1919;-68
2023/09/20 00:57:22;;;;;;;;;;;22.30;50.20;;;;;;1562761;74;2048;-68
2023/09/20 00:59:24;;;;;;;;;;;22.30;50.20;;;;;;1567408;74;721;-68
2023/09/20 01:01:26;;;;;;;;;;;22.30;50.20;;;;;;1569359;74;752;-68
2023/09/20 01:03:28;;;;;;;;;;;22.30;50.20;;;;;;1555987;74;745;-68
2023/09/20 01:05:36;;;;;;;;;;;22.30;50.10;;;;;;1569549;74;683;-67
2023/09/20 01:07:34;;;;;;;;;;;22.30;50.10;;;;;;1572732;74;1598;-68
2023/09/20 01:09:36;;;;;;;;;;;22.30;50.20;;;;;;1564207;74;725;-68
2023/09/20 01:11:38;;;;;;;;;;;22.20;50.00;;;;;;1567384;74;846;-67
2023/09/20 01:13:40;;;;;;;;;;;22.30;50.10;;;;;;1555844;74;718;-68
2023/09/20 01:15:44;;;;;;;;;;;22.30;50.00;;;;;;1561406;74;1906;-68
2023/09/20 01:17:46;;;;;;;;;;;22.30;50.00;;;;;;1569921;74;1145;-67
2023/09/20 01:19:48;;;;;;;;;;;22.30;50.00;;;;;;1564132;74;785;-68
2023/09/20 01:21:50;;;;;;;;;;;22.30;49.90;;;;;;1567661;74;737;-68
2023/09/20 01:23:52;;;;;;;;;;;22.30;50.00;;;;;;1570263;74;670;-67
2023/09/20 01:25:55;;;;;;;;;;;22.20;49.80;;;;;;1567323;74;804;-68
2023/09/20 01:27:58;;;;;;;;;;;22.30;49.90;;;;;;1570100;74;1148;-68
2023/09/20 01:30:00;;;;;;;;;;;22.20;49.80;;;;;;1578477;74;762;-68
2023/09/20 01:32:03;;;;;;;;;;;22.30;49.90;;;;;;1568268;74;783;-67
2023/09/20 01:34:05;;;;;;;;;;;22.30;49.90;;;;;;1570096;74;716;-68
2023/09/20 01:36:07;;;;;;;;;;;22.20;49.70;;;;;;1570252;74;1911;-67
2023/09/20 01:38:10;;;;;;;;;;;22.20;49.70;;;;;;1566686;74;1143;-68
2023/09/20 01:40:18;;;;;;;;;;;22.20;49.70;;;;;;1565423;74;781;-68
2023/09/20 01:42:21;;;;;;;;;;;22.20;49.70;;;;;;1565528;74;700;-68
2023/09/20 01:44:23;;;;;;;;;;;22.30;49.70;;;;;;1567675;74;770;-68
2023/09/20 01:46:25;;;;;;;;;;;22.30;49.80;;;;;;1569506;74;797;-68
2023/09/20 01:48:27;;;;;;;;;;;22.30;49.80;;;;;;1569398;74;1153;-69
2023/09/20 01:50:29;;;;;;;;;;;22.30;49.70;;;;;;1577033;74;702;-67
2023/09/20 01:52:32;;;;;;;;;;;22.20;49.60;;;;;;1559942;74;691;-67
2023/09/20 01:54:34;;;;;;;;;;;22.30;49.70;;;;;;1570260;74;772;-68
2023/09/20 01:56:36;;;;;;;;;;;22.30;49.70;;;;;;1569235;74;1924;-67
2023/09/20 01:58:38;;;;;;;;;;;22.20;49.60;;;;;;1561258;74;1157;-68
2023/09/20 02:00:40;;;;;;;;;;;22.20;49.60;;;;;;1570081;74;780;-68
2023/09/20 02:02:44;;;;;;;;;;;22.20;49.50;;;;;;1561982;74;803;-68
2023/09/20 02:04:46;;;;;;;;;;;22.20;49.40;;;;;;1563223;74;852;-68
2023/09/20 02:06:48;;;;;;;;;;;22.20;49.50;;;;;;1568084;74;807;-67
2023/09/20 02:08:50;;;;;;;;;;;22.30;49.70;;;;;;1566984;74;1143;-69
2023/09/20 02:10:52;;;;;;;;;;;22.20;49.40;;;;;;1561884;74;837;-67
2023/09/20 02:12:54;;;;;;;;;;;22.20;49.30;;;;;;1569232;74;693;-68
2023/09/20 02:14:56;;;;;;;;;;;22.10;49.40;;;;;;1570383;74;720;-68
2023/09/20 02:16:58;;;;;;;;;;;22.10;49.40;;;;;;1567003;74;1935;-68
2023/09/20 02:19:04;;;;;;;;;;;22.20;49.30;;;;;;1569425;74;1180;-67
2023/09/20 02:21:03;;;;;;;;;;;22.20;49.00;;;;;;1566039;74;1755;-68
2023/09/20 02:23:06;;;;;;;;;;;22.10;49.30;;;;;;1566363;74;662;-68
2023/09/20 02:25:11;;;;;;;;;;;22.20;49.30;;;;;;1569456;74;646;-68
2023/09/20 02:27:14;;;;;;;;;;;22.20;49.30;;;;;;1568541;74;668;-67
2023/09/20 02:29:17;;;;;;;;;;;22.20;49.40;;;;;;1568593;74;1463;-67
2023/09/20 02:31:18;;;;;;;;;;;22.10;49.40;;;;;;1571499;74;731;-67
2023/09/20 02:33:20;;;;;;;;;;;22.10;49.40;;;;;;1553600;74;831;-67
2023/09/20 02:35:22;;;;;;;;;;;22.10;49.30;;;;;;1561262;74;1921;-67
2023/09/20 02:37:24;;;;;;;;;;;22.10;49.40;;;;;;1563436;74;1108;-67
2023/09/20 02:39:26;;;;;;;;;;;22.10;49.30;;;;;;1561172;74;738;-68
2023/09/20 02:41:28;;;;;;;;;;;22.10;49.40;;;;;;1568222;74;798;-68
2023/09/20 02:43:31;;;;;;;;;;;22.10;49.40;;;;;;1558269;74;745;-67
2023/09/20 02:45:34;;;;;;;;;;;22.20;49.40;;;;;;1567662;74;701;-68
2023/09/20 02:47:35;;;;;;;;;;;22.10;49.50;;;;;;1566361;74;1247;-68
2023/09/20 02:49:40;;;;;;;;;;;22.10;49.40;;;;;;1567060;74;792;-69
2023/09/20 02:51:41;;;;;;;;;;;22.10;49.40;;;;;;1563356;74;1738;-66
2023/09/20 02:53:43;;;;;;;;;;;22.10;49.30;;;;;;1569456;74;718;-68
2023/09/20 02:55:45;;;;;;;;;;;22.20;49.30;;;;;;1559353;74;1942;-68
2023/09/20 02:57:52;;;;;;;;;;;22.10;49.40;;;;;;1563035;74;1129;-68
2023/09/20 02:59:52;;;;;;;;;;;22.20;49.40;;;;;;1568922;74;1638;-67
2023/09/20 03:01:53;;;;;;;;;;;22.10;49.30;;;;;;1571634;74;708;-68
2023/09/20 03:03:55;;;;;;;;;;;22.10;49.40;;;;;;1569439;74;937;-67
2023/09/20 03:05:57;;;;;;;;;;;22.10;49.30;;;;;;1565508;74;727;-68
2023/09/20 03:08:01;;;;;;;;;;;22.20;49.30;;;;;;1532148;76;1140;-68
2023/09/20 03:10:05;;;;;;;;;;;22.20;49.30;;;;;;1569981;74;1511;-66
2023/09/20 03:12:06;;;;;;;;;;;22.20;49.30;;;;;;1574537;74;1660;-67
2023/09/20 03:14:10;;;;;;;;;;;22.10;49.30;;;;;;1566134;74;744;-68
2023/09/20 03:16:13;;;;;;;;;;;22.10;49.30;;;;;;1568841;74;1920;-67
2023/09/20 03:18:15;;;;;;;;;;;22.10;49.20;;;;;;1564043;74;1765;-68
2023/09/20 03:20:23;;;;;;;;;;;22.20;49.20;;;;;;1534896;76;812;-66
2023/09/20 03:22:25;;;;;;;;;;;22.10;49.20;;;;;;1521533;77;759;-68
2023/09/20 03:24:27;;;;;;;;;;;22.10;49.30;;;;;;1517948;77;866;-68
2023/09/20 03:26:30;;;;;;;;;;;22.10;49.20;;;;;;1524023;77;1367;-68
2023/09/20 03:28:35;;;;;;;;;;;22.20;49.20;;;;;;1516172;78;1176;-66
2023/09/20 03:30:40;;;;;;;;;;;22.20;49.20;;;;;;1520335;77;922;-68
2023/09/20 03:32:44;;;;;;;;;;;22.20;49.20;;;;;;1525267;76;702;-67
2023/09/20 03:34:48;;;;;;;;;;;22.10;49.20;;;;;;1524271;78;1613;-68
2023/09/20 03:36:50;;;;;;;;;;;22.20;49.20;;;;;;1519059;77;1939;-68
2023/09/20 03:38:55;;;;;;;;;;;22.10;49.10;;;;;;1519511;77;1119;-68
2023/09/20 03:40:56;;;;;;;;;;;22.20;49.20;;;;;;1520748;78;1743;-67
2023/09/20 03:42:58;;;;;;;;;;;22.10;49.10;;;;;;1517632;78;801;-67
2023/09/20 03:45:00;;;;;;;;;;;22.10;49.20;;;;;;1515202;77;731;-68
2023/09/20 03:47:03;;;;;;;;;;;22.10;49.20;;;;;;1517740;78;743;-67
2023/09/20 03:49:05;;;;;;;;;;;22.10;49.30;;;;;;1516450;78;1149;-68
2023/09/20 03:51:09;;;;;;;;;;;22.10;49.30;;;;;;1524456;77;673;-67
2023/09/20 03:53:11;;;;;;;;;;;22.20;49.30;;;;;;1522459;76;1875;-68
2023/09/20 03:55:13;;;;;;;;;;;22.10;49.40;;;;;;1524078;76;775;-65
2023/09/20 03:57:15;;;;;;;;;;;22.10;49.40;;;;;;1511845;77;1924;-67
2023/09/20 03:59:17;;;;;;;;;;;22.20;49.40;;;;;;1520025;78;1105;-67
2023/09/20 04:01:20;;;;;;;;;;;22.10;49.40;;;;;;1523526;77;799;-68
2023/09/20 04:03:22;;;;;;;;;;;22.20;49.40;;;;;;1525658;77;890;-68
2023/09/20 04:05:24;;;;;;;;;;;22.10;49.50;;;;;;1516237;77;789;-67
2023/09/20 04:07:31;;;;;;;;;;;22.10;49.40;;;;;;1518093;78;1155;-68
2023/09/20 04:09:32;;;;;;;;;;;22.10;49.40;;;;;;1520971;77;1686;-66
2023/09/20 04:11:33;;;;;;;;;;;22.10;49.40;;;;;;1516772;77;1655;-67
2023/09/20 04:13:35;;;;;;;;;;;22.20;49.50;;;;;;1516413;77;638;-67
2023/09/20 04:15:40;;;;;;;;;;;22.10;49.50;;;;;;1519597;76;774;-67
2023/09/20 04:17:40;;;;;;;;;;;22.10;49.50;;;;;;1510998;77;1922;-68
2023/09/20 04:19:42;;;;;;;;;;;22.10;49.50;;;;;;1525498;77;703;-68
2023/09/20 04:21:44;;;;;;;;;;;22.10;49.60;;;;;;1516886;77;1557;-68
2023/09/20 04:23:46;;;;;;;;;;;22.10;49.40;;;;;;1518843;77;762;-69
2023/09/20 04:25:48;;;;;;;;;;;22.10;49.30;;;;;;1522946;77;735;-67
2023/09/20 04:27:50;;;;;;;;;;;22.20;49.10;;;;;;1523784;78;1188;-67
2023/09/20 04:29:52;;;;;;;;;;;22.10;49.00;;;;;;1518004;78;733;-68
2023/09/20 04:31:55;;;;;;;;;;;22.10;49.50;;;;;;1521327;77;749;-67
2023/09/20 04:33:57;;;;;;;;;;;22.10;49.40;;;;;;1521004;78;784;-68
2023/09/20 04:36:00;;;;;;;;;;;22.10;49.40;;;;;;1523481;76;659;-68
2023/09/20 04:38:02;;;;;;;;;;;22.10;49.40;;;;;;1521457;77;1914;-66
2023/09/20 04:40:08;;;;;;;;;;;22.10;49.40;;;;;;1525461;77;755;-68
2023/09/20 04:42:11;;;;;;;;;;;22.10;49.40;;;;;;1519161;77;1784;-67
2023/09/20 04:44:13;;;;;;;;;;;22.10;49.40;;;;;;1521326;78;1794;-67
2023/09/20 04:46:15;;;;;;;;;;;22.10;49.40;;;;;;1517378;76;748;-67
2023/09/20 04:48:17;;;;;;;;;;;22.00;49.30;;;;;;1524271;77;1148;-67
2023/09/20 04:50:19;;;;;;;;;;;22.10;49.30;;;;;;1517092;76;633;-67
2023/09/20 04:52:22;;;;;;;;;;;22.10;49.30;;;;;;1520691;78;840;-67
2023/09/20 04:54:24;;;;;;;;;;;22.10;49.30;;;;;;1523571;76;806;-67
2023/09/20 04:56:30;;;;;;;;;;;22.10;49.30;;;;;;1518424;78;1945;-66
2023/09/20 04:58:29;;;;;;;;;;;22.10;49.20;;;;;;1513905;77;1157;-67
2023/09/20 05:00:37;;;;;;;;;;;22.10;49.30;;;;;;1523879;77;719;-67
2023/09/20 05:02:38;;;;;;;;;;;22.10;49.20;;;;;;1519673;78;1579;-68
2023/09/20 05:04:40;;;;;;;;;;;22.10;49.20;;;;;;1513188;77;734;-67
2023/09/20 05:06:42;;;;;;;;;;;22.10;49.20;;;;;;1525169;76;683;-67
2023/09/20 05:08:44;;;;;;;;;;;22.10;49.20;;;;;;1523338;77;1135;-67
2023/09/20 05:10:46;;;;;;;;;;;22.10;49.20;;;;;;1522204;78;772;-67
2023/09/20 05:12:48;;;;;;;;;;;22.10;49.10;;;;;;1520059;77;1108;-68
2023/09/20 05:14:50;;;;;;;;;;;22.10;49.20;;;;;;1516372;77;746;-68
2023/09/20 05:16:52;;;;;;;;;;;22.20;49.10;;;;;;1522603;78;1911;-67
2023/09/20 05:18:54;;;;;;;;;;;22.10;49.00;;;;;;1507234;77;1531;-68
2023/09/20 05:20:56;;;;;;;;;;;22.10;49.00;;;;;;1522688;78;680;-69
2023/09/20 05:22:58;;;;;;;;;;;22.10;49.20;;;;;;1517738;77;817;-67
2023/09/20 05:25:00;;;;;;;;;;;22.10;49.20;;;;;;1527850;76;786;-69
2023/09/20 05:27:02;;;;;;;;;;;22.10;49.10;;;;;;1529919;76;804;-66
2023/09/20 05:29:04;;;;;;;;;;;22.10;49.20;;;;;;1536717;76;1142;-67
2023/09/20 05:31:06;;;;;;;;;;;22.10;49.10;;;;;;1532421;76;659;-67
2023/09/20 05:33:08;;;;;;;;;;;22.00;49.10;;;;;;1529771;76;799;-68
2023/09/20 05:35:11;;;;;;;;;;;22.20;49.20;;;;;;1531333;76;729;-68
2023/09/20 05:37:13;;;;;;;;;;;22.10;49.20;;;;;;1524333;76;1924;-67
2023/09/20 05:39:18;;;;;;;;;;;22.10;49.20;;;;;;1529765;76;1115;-68
2023/09/20 05:41:18;;;;;;;;;;;22.10;49.20;;;;;;1541613;76;1526;-67
2023/09/20 05:43:20;;;;;;;;;;;22.10;49.20;;;;;;1505470;77;651;-67
2023/09/20 05:45:26;;;;;;;;;;;22.10;49.20;;;;;;1508469;78;777;-69
2023/09/20 05:47:28;;;;;;;;;;;22.00;49.20;;;;;;1510204;77;1132;-67
2023/09/20 05:49:30;;;;;;;;;;;22.10;49.30;;;;;;1501102;77;664;-67
2023/09/20 05:51:32;;;;;;;;;;;22.10;49.40;;;;;;1519783;76;672;-67
2023/09/20 05:53:33;;;;;;;;;;;22.10;49.40;;;;;;1522498;77;598;-66
2023/09/20 05:55:38;;;;;;;;;;;22.10;49.40;;;;;;1520812;76;805;-68
2023/09/20 05:57:42;;;;;;;;;;;22.00;49.40;;;;;;1521450;77;1928;-67
2023/09/20 05:59:44;;;;;;;;;;;22.10;49.40;;;;;;1511323;76;995;-68
2023/09/20 06:01:46;;;;;;;;;;;22.10;49.50;;;;;;1523858;76;782;-67
2023/09/20 06:03:47;;;;;;;;;;;22.10;49.50;;;;;;1520537;77;614;-68
2023/09/20 06:05:49;;;;;;;;;;;22.10;49.60;;;;;;1518242;77;647;-68
2023/09/20 06:07:53;;;;;;;;;;;22.10;49.70;;;;;;1524361;77;1121;-68
2023/09/20 06:09:55;;;;;;;;;;;22.10;49.70;;;;;;1522478;77;791;-67
2023/09/20 06:11:57;;;;;;;;;;;22.10;49.70;;;;;;1523811;78;784;-67
2023/09/20 06:13:59;;;;;;;;;;;22.10;49.70;;;;;;1518186;77;1564;-68
2023/09/20 06:16:00;;;;;;;;;;;22.10;49.70;;;;;;1524116;78;678;-68
2023/09/20 06:18:02;;;;;;;;;;;22.00;49.70;;;;;;1524473;77;1936;-68
2023/09/20 06:20:09;;;;;;;;;;;22.20;49.80;;;;;;1522876;77;808;-68
2023/09/20 06:22:08;;;;;;;;;;;22.10;49.80;;;;;;1515578;76;1507;-68
2023/09/20 06:24:13;;;;;;;;;;;22.10;49.80;;;;;;1523217;76;741;-68
2023/09/20 06:26:15;;;;;;;;;;;22.20;49.80;;;;;;1522165;77;783;-67
2023/09/20 06:28:16;;;;;;;;;;;22.10;49.80;;;;;;1520712;76;1187;-68
2023/09/20 06:30:20;;;;;;;;;;;22.10;50.00;;;;;;1515053;76;822;-67
2023/09/20 06:32:22;;;;;;;;;;;22.20;50.00;;;;;;1524233;77;704;-67
2023/09/20 06:34:26;;;;;;;;;;;22.10;50.00;;;;;;1523292;77;770;-66
2023/09/20 06:36:28;;;;;;;;;;;22.10;50.10;;;;;;1524425;76;711;-69
2023/09/20 06:38:30;;;;;;;;;;;22.10;50.20;;;;;;1507637;77;1919;-68
2023/09/20 06:40:38;;;;;;;;;;;22.00;50.20;;;;;;1524687;78;705;-68
2023/09/20 06:42:39;;;;;;;;;;;22.10;50.20;;;;;;1521298;78;1847;-68
2023/09/20 06:44:44;;;;;;;;;;;22.10;50.30;;;;;;1514478;78;789;-68
2023/09/20 06:46:45;;;;;;;;;;;22.10;50.40;;;;;;1520434;76;1784;-68
2023/09/20 06:48:47;;;;;;;;;;;22.00;50.30;;;;;;1525536;76;1145;-68
2023/09/20 06:50:52;;;;;;;;;;;22.10;50.50;;;;;;1524809;78;691;-68
2023/09/20 06:52:54;;;;;;;;;;;22.10;50.50;;;;;;1525039;77;849;-68
2023/09/20 06:54:56;;;;;;;;;;;22.10;50.60;;;;;;1524637;77;718;-67
2023/09/20 06:57:02;;;;;;;;;;;22.10;50.60;;;;;;1525164;77;1950;-68
2023/09/20 06:59:01;;;;;;;;;;;22.10;50.70;;;;;;1523009;77;1611;-69
2023/09/20 07:01:04;;;;;;;;;;;22.10;50.70;;;;;;1525160;77;769;-68
2023/09/20 07:03:06;;;;;;;;;;;22.10;50.70;;;;;;1520907;77;725;-68
2023/09/20 07:05:09;;;;;;;;;;;22.10;50.80;;;;;;1513767;77;777;-68
2023/09/20 07:07:12;;;;;;;;;;;22.10;50.90;;;;;;1521670;78;689;-67
2023/09/20 07:09:15;;;;;;;;;;;22.10;50.90;;;;;;1523546;76;1081;-68
2023/09/20 07:11:17;;;;;;;;;;;22.20;50.90;;;;;;1529193;77;1550;-68
2023/09/20 07:13:19;;;;;;;;;;;22.20;51.00;;;;;;1517659;77;573;-68
2023/09/20 07:15:24;;;;;;;;;;;22.10;51.00;;;;;;1521220;77;767;-67
2023/09/20 07:17:25;;;;;;;;;;;22.20;51.00;;;;;;1521822;77;1920;-67
2023/09/20 07:19:30;;;;;;;;;;;22.20;51.00;;;;;;1519805;77;808;-68
2023/09/20 07:21:37;;;;;;;;;;;22.10;51.10;;;;;;1512570;78;753;-67
2023/09/20 07:23:38;;;;;;;;;;;22.10;51.10;;;;;;1521212;77;1653;-67
2023/09/20 07:25:40;;;;;;;;;;;22.20;51.00;;;;;;1515904;76;761;-68
2023/09/20 07:27:42;;;;;;;;;;;22.20;50.90;;;;;;1522297;77;1131;-67
2023/09/20 07:29:44;;;;;;;;;;;22.20;51.00;;;;;;1519788;77;765;-68
2023/09/20 07:31:46;;;;;;;;;;;22.30;51.10;;;;;;1522712;77;797;-68
2023/09/20 07:33:49;;;;;;;;;;;22.20;51.00;;;;;;1524193;76;759;-68
2023/09/20 07:36:00;;;;;;;;;;;22.30;51.20;;;;;;1524106;77;728;-68
2023/09/20 07:38:03;;;;;;;;;;;22.30;51.20;;;;;;1515903;77;1922;-68
2023/09/20 07:40:06;;;;;;;;;;;22.30;51.30;;;;;;1525053;78;783;-67
2023/09/20 07:42:08;;;;;;;;;;;22.30;51.20;;;;;;1524361;77;809;-67
2023/09/20 07:44:11;;;;;;;;;;;22.30;51.30;;;;;;1517838;76;779;-67
2023/09/20 07:46:13;;;;;;;;;;;22.30;51.30;;;;;;1526098;77;662;-68
2023/09/20 07:48:21;;;;;;;;;;;22.30;51.40;;;;;;1523606;77;1138;-69
2023/09/20 07:50:21;;;;;;;;;;;22.40;51.50;;;;;;1521499;76;1935;-68
2023/09/20 07:52:23;;;;;;;;;;;22.40;51.50;;;;;;1523815;77;742;-68
2023/09/20 07:54:26;;;;;;;;;;;22.30;51.60;;;;;;1522417;77;759;-67
2023/09/20 07:56:28;;;;;;;;;;;22.40;51.70;;;;;;1519965;78;794;-68
2023/09/20 07:58:36;;;;;;;;;;;22.40;51.80;;;;;;1516597;76;1931;-68
2023/09/20 08:00:35;;;;;;;;;;;22.40;51.80;;;;;;1523647;77;1662;-68
2023/09/20 08:02:38;;;;;;;;;;;22.40;52.00;;;;;;1524407;77;878;-67
2023/09/20 08:04:40;;;;;;;;;;;22.30;52.00;;;;;;1519631;77;791;-67
2023/09/20 08:06:42;;;;;;;;;;;22.40;52.10;;;;;;1516702;76;1524;-68
2023/09/20 08:08:44;;;;;;;;;;;22.40;52.10;;;;;;1520891;77;1109;-67
2023/09/20 08:10:46;;;;;;;;;;;22.40;52.20;;;;;;1522790;77;779;-68
2023/09/20 08:12:48;;;;;;;;;;;22.40;52.20;;;;;;1513826;77;709;-67
2023/09/20 08:14:51;;;;;;;;;;;22.40;52.20;;;;;;1518515;77;709;-67
2023/09/20 08:21:19;;;;;;;;;;;22.40;52.30;;;;;;1521351;77;872;-68
2023/09/20 09:00:46;;;;;;;;;;;22.50;53.00;;;;;;1519560;77;721;-68
2023/09/20 09:02:47;;;;;;;;;;;22.60;53.00;;;;;;1518220;77;1485;-68
2023/09/20 09:04:52;;;;;;;;;;;22.60;53.00;;;;;;1523301;77;700;-67
2023/09/20 09:06:53;;;;;;;;;;;22.50;53.10;;;;;;1519384;78;1013;-68
2023/09/20 09:08:55;;;;;;;;;;;22.50;53.10;;;;;;1527745;77;1115;-67
2023/09/20 09:10:57;;;;;;;;;;;22.50;53.10;;;;;;1523011;77;658;-67
2023/09/20 09:12:59;;;;;;;;;;;22.60;53.10;;;;;;1524740;77;736;-69
2023/09/20 09:15:01;;;;;;;;;;;22.50;53.10;;;;;;1524743;78;790;-67
2023/09/20 09:17:03;;;;;;;;;;;22.50;53.10;;;;;;1524674;77;802;-67
2023/09/20 09:19:07;;;;;;;;;;;22.50;53.10;;;;;;1525040;78;1923;-68
2023/09/20 09:21:09;;;;;;;;;;;22.60;53.10;;;;;;1524684;77;805;-69
2023/09/20 09:23:13;;;;;;;;;;;22.50;53.10;;;;;;1495970;77;854;-68
2023/09/20 09:25:17;;;;;;;;;;;22.50;53.20;;;;;;1520481;76;750;-68
2023/09/20 09:27:18;;;;;;;;;;;22.50;53.20;;;;;;1516479;77;704;-68
2023/09/20 09:29:21;;;;;;;;;;;22.50;53.20;;;;;;1530369;76;1158;-69
2023/09/20 09:31:23;;;;;;;;;;;22.60;53.30;;;;;;1531749;76;699;-65
2023/09/20 09:33:27;;;;;;;;;;;22.50;53.40;;;;;;1515718;77;747;-68
2023/09/20 09:35:28;;;;;;;;;;;22.60;53.40;;;;;;1566620;74;646;-67
2023/09/20 09:37:32;;;;;;;;;;;22.60;53.40;;;;;;1566136;74;1109;-67
2023/09/20 09:39:36;;;;;;;;;;;22.60;53.40;;;;;;1570510;74;1911;-67
2023/09/20 09:41:46;;;;;;;;;;;22.60;53.40;;;;;;1569716;74;1775;-69
2023/09/20 09:43:50;;;;;;;;;;;22.60;53.60;;;;;;1572089;74;779;-67
2023/09/20 09:45:55;;;;;;;;;;;22.60;53.60;;;;;;1566451;74;2086;-68
2023/09/20 09:47:59;;;;;;;;;;;22.60;53.60;;;;;;1570211;74;1134;-67
2023/09/20 09:50:02;;;;;;;;;;;22.60;53.60;;;;;;1568042;74;708;-69
2023/09/20 09:52:04;;;;;;;;;;;22.50;53.70;;;;;;1530107;76;770;-68
2023/09/20 09:54:06;;;;;;;;;;;22.60;53.80;;;;;;1516857;77;720;-67
2023/09/20 09:56:09;;;;;;;;;;;22.60;53.80;;;;;;1517380;77;642;-67
2023/09/20 09:58:11;;;;;;;;;;;22.50;53.80;;;;;;1538401;76;1920;-68
2023/09/20 10:00:16;;;;;;;;;;;22.60;53.70;;;;;;1508342;77;1671;-67
2023/09/20 10:02:18;;;;;;;;;;;22.60;53.80;;;;;;1518030;77;701;-67
2023/09/20 10:04:20;;;;;;;;;;;22.60;53.80;;;;;;1571184;74;744;-68
2023/09/20 10:06:22;;;;;;;;;;;22.60;53.80;;;;;;1564519;74;777;-67
2023/09/20 10:08:24;;;;;;;;;;;22.60;53.80;;;;;;1564774;74;1106;-67
2023/09/20 10:10:27;;;;;;;;;;;22.60;53.80;;;;;;1568070;74;714;-67
2023/09/20 10:12:29;;;;;;;;;;;22.60;53.90;;;;;;1561726;74;754;-67
2023/09/20 10:14:31;;;;;;;;;;;22.60;53.70;;;;;;1559944;74;874;-68
2023/09/20 10:16:33;;;;;;;;;;;22.60;53.80;;;;;;1561775;74;733;-67
2023/09/20 10:18:36;;;;;;;;;;;22.60;53.70;;;;;;1562854;74;1951;-68
2023/09/20 10:21:00;;;;;;;;;;;22.60;53.80;;;;;;1560959;74;1809;-67
2023/09/20 10:23:03;;;;;;;;;;;22.60;53.70;;;;;;1563290;74;810;-68
2023/09/20 10:25:06;;;;;;;;;;;22.60;53.70;;;;;;1564123;74;733;-67
2023/09/20 10:27:10;;;;;;;;;;;22.60;53.80;;;;;;1565675;74;712;-67
2023/09/20 10:29:26;;;;;;;;;;;22.70;53.80;;;;;;1568995;74;1821;-68
2023/09/20 10:31:31;;;;;;;;;;;22.60;53.60;;;;;;1556331;74;682;-68
2023/09/20 10:33:45;;;;;;;;;;;22.60;53.60;;;;;;1573407;74;1566;-67
2023/09/20 10:35:46;;;;;;;;;;;22.60;53.60;;;;;;1569499;74;1779;-66
2023/09/20 10:38:08;;;;;;;;;;;22.60;53.60;;;;;;1568206;74;1168;-68
2023/09/20 10:40:11;;;;;;;;;;;22.60;53.60;;;;;;1560357;74;752;-67
2023/09/20 10:42:13;;;;;;;;;;;22.60;53.60;;;;;;1567552;74;703;-68
2023/09/20 10:44:31;;;;;;;;;;;22.60;53.60;;;;;;1567854;74;800;-68
2023/09/20 10:46:37;;;;;;;;;;;22.60;53.60;;;;;;1567561;74;739;-68
2023/09/20 10:48:48;;;;;;;;;;;22.60;53.70;;;;;;1570681;74;1200;-68
2023/09/20 10:50:50;;;;;;;;;;;22.60;53.60;;;;;;1565027;74;1869;-68
2023/09/20 10:52:58;;;;;;;;;;;22.60;53.60;;;;;;1560830;74;1247;-67
2023/09/20 10:55:18;;;;;;;;;;;22.60;53.60;;;;;;1568528;74;1511;-68
2023/09/20 10:57:23;;;;;;;;;;;22.70;53.60;;;;;;1564338;74;704;-68
2023/09/20 10:59:27;;;;;;;;;;;22.70;53.60;;;;;;1560604;74;1941;-67
2023/09/20 11:01:28;;;;;;;;;;;22.70;53.60;;;;;;1552740;74;764;-68
2023/09/20 11:03:30;;;;;;;;;;;22.70;53.60;;;;;;1572267;74;684;-68
2023/09/20 11:05:32;;;;;;;;;;;22.60;53.40;;;;;;1556748;74;806;-67
2023/09/20 11:07:34;;;;;;;;;;;22.70;53.50;;;;;;1565722;74;1137;-68
2023/09/20 11:09:42;;;;;;;;;;;22.60;53.40;;;;;;1563652;74;631;-67
2023/09/20 11:11:41;;;;;;;;;;;22.60;53.40;;;;;;1556073;74;1671;-68
2023/09/20 11:13:46;;;;;;;;;;;22.70;53.40;;;;;;1569998;74;729;-68
2023/09/20 11:15:48;;;;;;;;;;;22.60;53.30;;;;;;1566139;74;1715;-67
2023/09/20 11:17:50;;;;;;;;;;;22.60;53.30;;;;;;1570553;74;1144;-69
2023/09/20 11:19:52;;;;;;;;;;;22.60;53.20;;;;;;1569894;74;1920;-68
2023/09/20 11:21:54;;;;;;;;;;;22.70;53.40;;;;;;1565026;74;779;-68
2023/09/20 11:23:56;;;;;;;;;;;22.70;53.40;;;;;;1565732;74;796;-67
2023/09/20 11:25:58;;;;;;;;;;;22.60;53.20;;;;;;1566914;74;774;-68
2023/09/20 11:28:00;;;;;;;;;;;22.70;53.30;;;;;;1563893;74;1099;-67
2023/09/20 11:30:06;;;;;;;;;;;22.60;53.10;;;;;;1563301;74;707;-68
2023/09/20 11:32:17;;;;;;;;;;;22.60;53.10;;;;;;1568713;74;926;-67
2023/09/20 11:34:17;;;;;;;;;;;22.70;53.10;;;;;;1576488;74;1577;-68
2023/09/20 11:36:19;;;;;;;;;;;22.60;53.10;;;;;;1567111;74;1699;-68
2023/09/20 11:38:21;;;;;;;;;;;22.70;53.10;;;;;;1566407;74;1168;-68
2023/09/20 11:40:23;;;;;;;;;;;22.60;53.10;;;;;;1568627;74;1927;-67
2023/09/20 11:42:28;;;;;;;;;;;22.70;53.10;;;;;;1569928;74;807;-68
2023/09/20 11:44:33;;;;;;;;;;;22.70;53.00;;;;;;1569053;74;804;-69
2023/09/20 11:46:35;;;;;;;;;;;22.70;53.10;;;;;;1561945;74;1939;-68
2023/09/20 11:48:38;;;;;;;;;;;22.60;52.90;;;;;;1569835;75;1130;-68
2023/09/20 11:50:44;;;;;;;;;;;22.60;52.90;;;;;;1565321;74;740;-68
2023/09/20 11:52:46;;;;;;;;;;;22.70;53.00;;;;;;1565907;74;774;-68
2023/09/20 11:54:48;;;;;;;;;;;22.70;52.90;;;;;;1570432;74;1515;-68
2023/09/20 11:56:50;;;;;;;;;;;22.70;52.90;;;;;;1558620;74;788;-68
2023/09/20 11:58:53;;;;;;;;;;;22.60;52.80;;;;;;1569523;74;1948;-68
2023/09/20 12:00:55;;;;;;;;;;;22.60;52.80;;;;;;1565378;74;663;-68
2023/09/20 12:02:57;;;;;;;;;;;22.60;52.80;;;;;;1568533;74;775;-67
2023/09/20 12:04:59;;;;;;;;;;;22.70;52.90;;;;;;1569990;74;706;-67
2023/09/20 12:07:01;;;;;;;;;;;22.70;52.90;;;;;;1568439;74;750;-68
2023/09/20 12:09:04;;;;;;;;;;;22.60;52.80;;;;;;1571122;74;1110;-68
2023/09/20 12:11:07;;;;;;;;;;;22.60;52.80;;;;;;1559451;74;732;-68
2023/09/20 12:13:09;;;;;;;;;;;22.70;52.80;;;;;;1564529;74;745;-68
2023/09/20 12:15:11;;;;;;;;;;;22.60;52.80;;;;;;1559400;74;778;-67
2023/09/20 12:17:14;;;;;;;;;;;22.70;52.80;;;;;;1564312;74;800;-68
2023/09/20 12:19:17;;;;;;;;;;;22.70;52.80;;;;;;1569972;74;1942;-68
2023/09/20 12:21:19;;;;;;;;;;;22.60;52.80;;;;;;1569330;74;1396;-69
2023/09/20 12:23:21;;;;;;;;;;;22.70;52.80;;;;;;1561864;74;847;-68
2023/09/20 12:25:23;;;;;;;;;;;22.70;52.80;;;;;;1568683;74;727;-68
2023/09/20 12:27:25;;;;;;;;;;;22.60;52.80;;;;;;1569366;74;1147;-67
2023/09/20 12:29:27;;;;;;;;;;;22.70;52.90;;;;;;1563494;74;791;-68
2023/09/20 12:31:29;;;;;;;;;;;22.70;52.80;;;;;;1565977;74;801;-68
2023/09/20 12:33:31;;;;;;;;;;;22.60;52.80;;;;;;1565838;74;784;-67
2023/09/20 12:35:33;;;;;;;;;;;22.70;52.90;;;;;;1567613;74;664;-67
2023/09/20 12:37:35;;;;;;;;;;;22.70;52.80;;;;;;1558984;74;1168;-68
2023/09/20 12:39:38;;;;;;;;;;;22.60;52.80;;;;;;1570159;74;1926;-67
2023/09/20 12:41:42;;;;;;;;;;;22.70;52.80;;;;;;1559631;74;768;-68
2023/09/20 12:43:44;;;;;;;;;;;22.70;52.80;;;;;;1567098;74;777;-68
2023/09/20 12:45:46;;;;;;;;;;;22.70;52.80;;;;;;1578395;74;758;-68
2023/09/20 12:47:48;;;;;;;;;;;22.60;52.80;;;;;;1567708;74;1145;-68
2023/09/20 12:49:50;;;;;;;;;;;22.70;52.80;;;;;;1569062;74;782;-68
2023/09/20 12:51:52;;;;;;;;;;;22.60;52.80;;;;;;1559128;74;770;-67
2023/09/20 12:53:54;;;;;;;;;;;22.70;52.80;;;;;;1568828;74;720;-66
2023/09/20 12:55:56;;;;;;;;;;;22.60;52.80;;;;;;1568326;75;1333;-68